Time;durP1;ratioP1;P1;durP2;ratioP2;P2;SDS_P1;SDS_P2;PMS_P1;PMS_P2;Temp;Humidity;BMP_temperature;BMP_pressure;BME280_temperature;BME280_humidity;BME280_pressure;Samples;Min_cycle;Max_cycle;Signal;HPM_P1;HPM_P2
2023/09/22 03:01:14;;;;;;;0.57;0.20;;;22.90;57.30;;;;;;5614596;22;45930;-85
2023/09/22 03:03:43;;;;;;;0.47;0.25;;;22.80;57.20;;;;;;4949602;28;45029;-82
2023/09/22 03:06:12;;;;;;;0.25;0.20;;;22.80;57.30;;;;;;4955360;28;45704;-82
2023/09/22 03:08:39;;;;;;;0.32;0.15;;;22.90;57.30;;;;;;4941732;28;45102;-82
2023/09/22 03:11:05;;;;;;;0.50;0.30;;;22.90;57.40;;;;;;4942280;28;45421;-82
2023/09/22 03:13:31;;;;;;;0.25;0.13;;;22.90;57.30;;;;;;4942925;28;45316;-82
2023/09/22 03:15:57;;;;;;;0.40;0.30;;;22.90;57.40;;;;;;4903607;28;45478;-81
2023/09/22 03:18:24;;;;;;;0.30;0.13;;;22.80;57.20;;;;;;4937600;28;47345;-82
2023/09/22 03:20:50;;;;;;;0.40;0.30;;;22.90;57.30;;;;;;4967408;28;45833;-82
2023/09/22 03:23:17;;;;;;;0.20;0.20;;;22.90;57.30;;;;;;4940565;28;44734;-81
2023/09/22 03:25:44;;;;;;;0.55;0.40;;;22.90;57.30;;;;;;4927620;28;45860;-82
2023/09/22 03:28:10;;;;;;;0.30;0.30;;;22.90;57.30;;;;;;4916498;28;47618;-82
2023/09/22 03:30:36;;;;;;;0.52;0.20;;;22.90;57.30;;;;;;4945786;28;45666;-82
2023/09/22 03:33:02;;;;;;;0.45;0.25;;;22.80;57.20;;;;;;4957131;28;45530;-82
2023/09/22 03:35:28;;;;;;;0.32;0.13;;;22.80;57.30;;;;;;4938093;28;44938;-81
2023/09/22 03:37:55;;;;;;;0.80;0.40;;;22.80;57.20;;;;;;4954807;28;45329;-81
2023/09/22 03:40:40;;;;;;;0.93;0.30;;;22.80;57.20;;;;;;4950776;28;45624;-82
2023/09/22 03:43:06;;;;;;;2.30;0.30;;;22.80;57.20;;;;;;4926546;28;45245;-82
2023/09/22 03:45:32;;;;;;;0.90;0.25;;;22.90;57.30;;;;;;4923198;28;46223;-82
2023/09/22 03:47:58;;;;;;;0.93;0.40;;;22.80;57.20;;;;;;4937860;28;47013;-82
2023/09/22 03:50:24;;;;;;;1.02;0.30;;;22.80;57.20;;;;;;4922909;28;45935;-82
2023/09/22 03:52:50;;;;;;;1.38;0.40;;;22.80;57.20;;;;;;4948271;28;45303;-82
2023/09/22 03:55:16;;;;;;;0.32;0.30;;;22.90;57.30;;;;;;4959344;28;45654;-82
2023/09/22 03:57:42;;;;;;;1.02;0.40;;;22.80;57.20;;;;;;4907581;28;47215;-82
2023/09/22 04:00:17;;;;;;;0.20;0.20;;;22.80;57.20;;;;;;4943575;28;45457;-82
2023/09/22 04:02:44;;;;;;;0.70;0.30;;;22.80;57.20;;;;;;4934810;28;44902;-82
2023/09/22 04:05:11;;;;;;;0.22;0.20;;;22.80;57.20;;;;;;4928657;28;45153;-81
2023/09/22 04:07:37;;;;;;;0.63;0.30;;;22.80;57.20;;;;;;4925095;28;46257;-82
2023/09/22 04:10:07;;;;;;;0.65;0.30;;;22.80;57.20;;;;;;4951980;28;45384;-82
2023/09/22 04:12:35;;;;;;;0.85;0.30;;;22.80;57.20;;;;;;4931295;28;45295;-82
2023/09/22 04:15:05;;;;;;;0.52;0.40;;;22.80;57.90;;;;;;4942621;28;45627;-82
2023/09/22 04:17:34;;;;;;;0.52;0.30;;;22.80;57.20;;;;;;4919418;28;47108;-81
2023/09/22 04:20:00;;;;;;;0.30;0.17;;;22.80;57.20;;;;;;4961064;28;45346;-81
2023/09/22 04:22:28;;;;;;;0.35;0.20;;;22.80;57.20;;;;;;4934659;28;45551;-81
2023/09/22 04:25:00;;;;;;;0.47;0.20;;;22.90;57.20;;;;;;4976412;28;45445;-81
2023/09/22 04:27:32;;;;;;;1.20;0.50;;;22.80;57.20;;;;;;4923022;28;46245;-81
2023/09/22 04:30:21;;;;;;;0.20;0.13;;;22.80;57.20;;;;;;4929495;28;45625;-81
2023/09/22 04:32:47;;;;;;;0.80;0.40;;;22.90;57.30;;;;;;4950423;28;45161;-82
2023/09/22 04:35:13;;;;;;;1.05;0.20;;;22.80;57.80;;;;;;4940528;28;45007;-82
2023/09/22 04:37:40;;;;;;;0.50;0.20;;;22.80;57.20;;;;;;4925914;28;46339;-82
2023/09/22 04:40:20;;;;;;;1.35;0.28;;;22.80;57.20;;;;;;4968212;28;45030;-82
2023/09/22 04:42:45;;;;;;;2.67;0.20;;;22.80;57.30;;;;;;4967540;28;46080;-82
2023/09/22 04:45:11;;;;;;;0.32;0.20;;;22.80;57.20;;;;;;4933894;28;45641;-82
2023/09/22 04:47:37;;;;;;;0.63;0.30;;;22.80;57.20;;;;;;4951015;28;45560;-82
2023/09/22 04:50:03;;;;;;;0.70;0.20;;;22.80;57.20;;;;;;4937828;28;45622;-80
2023/09/22 04:52:30;;;;;;;2.55;0.20;;;22.80;57.20;;;;;;4949410;28;44689;-82
2023/09/22 04:54:56;;;;;;;0.20;0.20;;;22.80;57.20;;;;;;4953412;28;45369;-82
2023/09/22 04:57:23;;;;;;;0.30;0.10;;;22.80;57.20;;;;;;4937175;28;46036;-81
2023/09/22 04:59:52;;;;;;;0.30;0.30;;;22.80;57.20;;;;;;4967110;28;46140;-82
2023/09/22 05:02:18;;;;;;;2.38;0.50;;;22.80;57.30;;;;;;4960792;28;45118;-82
2023/09/22 05:04:44;;;;;;;0.32;0.20;;;22.80;57.20;;;;;;4941559;28;45543;-82
2023/09/22 05:07:11;;;;;;;1.15;0.30;;;22.80;57.20;;;;;;4933265;28;45430;-82
2023/09/22 05:09:37;;;;;;;0.35;0.20;;;22.80;57.20;;;;;;4966932;28;45363;-81
2023/09/22 05:12:03;;;;;;;0.32;0.22;;;22.80;57.20;;;;;;4950068;28;46714;-82
2023/09/22 05:14:29;;;;;;;0.40;0.30;;;22.80;57.20;;;;;;4923837;28;45508;-82
2023/09/22 05:16:55;;;;;;;0.60;0.20;;;22.80;57.20;;;;;;4961092;28;46179;-82
2023/09/22 05:19:21;;;;;;;0.30;0.30;;;22.80;57.20;;;;;;4953662;28;45450;-82
2023/09/22 05:21:47;;;;;;;0.40;0.25;;;22.80;57.20;;;;;;4948822;28;45649;-82
2023/09/22 05:24:13;;;;;;;0.85;0.30;;;22.80;57.20;;;;;;4956048;28;45618;-82
2023/09/22 05:26:40;;;;;;;0.52;0.30;;;22.80;57.20;;;;;;4968126;28;45269;-82
2023/09/22 05:29:06;;;;;;;0.50;0.20;;;22.80;57.20;;;;;;4951117;28;44998;-81
2023/09/22 05:31:34;;;;;;;0.40;0.20;;;22.80;57.20;;;;;;4930256;28;45575;-82
2023/09/22 05:34:00;;;;;;;1.15;0.20;;;22.80;57.20;;;;;;4937105;28;45697;-82
2023/09/22 05:36:27;;;;;;;0.90;0.25;;;22.80;57.20;;;;;;4918111;28;46423;-82
2023/09/22 05:38:53;;;;;;;0.20;0.20;;;22.80;57.20;;;;;;4933871;28;45661;-82
2023/09/22 05:41:19;;;;;;;0.45;0.32;;;22.80;57.20;;;;;;4949864;28;45339;-81
2023/09/22 05:43:45;;;;;;;0.25;0.20;;;22.80;57.20;;;;;;4955692;28;45668;-82
2023/09/22 05:46:10;;;;;;;0.60;0.30;;;22.80;57.20;;;;;;4952559;28;46992;-82
2023/09/22 05:48:37;;;;;;;0.73;0.50;;;22.80;57.20;;;;;;4936746;28;45402;-82
2023/09/22 05:51:05;;;;;;;0.80;0.30;;;22.80;57.20;;;;;;4964311;28;46155;-82
2023/09/22 05:53:31;;;;;;;0.10;0.10;;;22.80;57.20;;;;;;4941517;28;45481;-82
2023/09/22 05:56:07;;;;;;;0.50;0.30;;;22.80;57.20;;;;;;4946514;28;46278;-82
2023/09/22 05:58:36;;;;;;;0.35;0.20;;;22.80;57.10;;;;;;4971120;28;45426;-81
2023/09/22 06:01:08;;;;;;;0.40;0.30;;;22.80;57.60;;;;;;4943563;28;45549;-81
2023/09/22 06:03:38;;;;;;;0.75;0.30;;;22.80;57.20;;;;;;4938979;28;45468;-82
2023/09/22 06:06:12;;;;;;;1.67;0.30;;;22.80;57.20;;;;;;4951462;28;46966;-82
2023/09/22 06:08:44;;;;;;;0.80;0.13;;;22.80;57.20;;;;;;4954626;28;45233;-82
2023/09/22 06:11:12;;;;;;;0.75;0.20;;;22.80;57.20;;;;;;4952191;28;45247;-82
2023/09/22 06:13:38;;;;;;;2.50;0.20;;;22.80;57.20;;;;;;4943965;28;45662;-82
2023/09/22 06:16:04;;;;;;;0.30;0.20;;;22.80;57.20;;;;;;4947370;28;45397;-82
2023/09/22 06:18:30;;;;;;;0.20;0.20;;;22.80;57.80;;;;;;4928516;28;45068;-81
2023/09/22 06:20:57;;;;;;;0.20;0.20;;;22.80;57.20;;;;;;4926824;28;45318;-81
2023/09/22 06:23:23;;;;;;;1.75;0.28;;;22.80;57.20;;;;;;4940327;28;45560;-81
2023/09/22 06:25:54;;;;;;;0.20;0.20;;;22.80;57.20;;;;;;4952949;28;45794;-82
2023/09/22 06:28:20;;;;;;;0.20;0.10;;;22.80;57.20;;;;;;4940981;28;45359;-82
2023/09/22 06:30:50;;;;;;;0.28;0.20;;;22.80;57.20;;;;;;4934514;28;45051;-82
2023/09/22 06:33:18;;;;;;;0.50;0.30;;;22.80;57.20;;;;;;4929605;28;45030;-82
2023/09/22 06:35:44;;;;;;;0.40;0.30;;;22.80;57.20;;;;;;4941457;28;45413;-82
2023/09/22 06:38:10;;;;;;;0.30;0.30;;;22.80;57.20;;;;;;4948298;28;45176;-82
2023/09/22 06:40:37;;;;;;;0.65;0.30;;;22.80;57.20;;;;;;4951634;28;45677;-82
2023/09/22 06:43:07;;;;;;;0.17;0.17;;;22.80;57.20;;;;;;4954877;28;45520;-81
2023/09/22 06:45:35;;;;;;;0.55;0.20;;;22.80;57.20;;;;;;4965818;28;45698;-81
2023/09/22 06:48:05;;;;;;;0.30;0.20;;;22.80;57.20;;;;;;4941582;28;45398;-82
2023/09/22 06:50:34;;;;;;;0.40;0.40;;;22.80;57.20;;;;;;4938698;28;45048;-81
2023/09/22 06:52:59;;;;;;;0.43;0.30;;;22.80;57.20;;;;;;4958128;28;45834;-81
2023/09/22 06:55:26;;;;;;;0.55;0.30;;;22.80;57.20;;;;;;4921108;28;46151;-81
2023/09/22 06:57:52;;;;;;;1.45;0.30;;;22.80;57.20;;;;;;4941370;28;45545;-82
2023/09/22 07:00:20;;;;;;;0.32;0.30;;;22.80;57.20;;;;;;4952129;28;45627;-81
2023/09/22 07:02:49;;;;;;;0.30;0.15;;;22.80;57.20;;;;;;4928713;28;45952;-82
2023/09/22 07:05:16;;;;;;;0.38;0.20;;;22.80;57.20;;;;;;4935084;28;46157;-81
2023/09/22 07:07:41;;;;;;;1.05;0.28;;;22.80;57.20;;;;;;4943231;28;44918;-82
2023/09/22 07:10:11;;;;;;;0.40;0.22;;;22.80;57.20;;;;;;4928948;28;45306;-81
2023/09/22 07:12:37;;;;;;;0.43;0.30;;;22.80;57.20;;;;;;4954652;28;45472;-82
2023/09/22 07:15:04;;;;;;;0.95;0.30;;;22.80;57.20;;;;;;4923221;28;47601;-81
2023/09/22 07:17:31;;;;;;;0.63;0.30;;;22.80;57.20;;;;;;4922447;28;46063;-81
2023/09/22 07:19:57;;;;;;;0.70;0.30;;;22.80;57.20;;;;;;4951994;28;45598;-81
2023/09/22 07:22:23;;;;;;;0.10;0.10;;;22.80;57.20;;;;;;4905957;28;45557;-81
2023/09/22 07:24:52;;;;;;;0.47;0.30;;;22.80;57.20;;;;;;4956675;28;46145;-82
2023/09/22 07:27:18;;;;;;;0.63;0.40;;;22.80;57.20;;;;;;4935203;28;46136;-81
2023/09/22 07:29:44;;;;;;;1.95;0.38;;;22.80;57.20;;;;;;4934393;28;45347;-82
2023/09/22 07:32:10;;;;;;;0.63;0.20;;;22.80;57.20;;;;;;4933214;28;45065;-81
2023/09/22 07:34:36;;;;;;;0.20;0.20;;;22.80;57.20;;;;;;4974808;28;46322;-82
2023/09/22 07:37:01;;;;;;;0.20;0.20;;;22.80;57.20;;;;;;4934624;28;45440;-81
2023/09/22 07:39:27;;;;;;;1.60;0.40;;;22.70;57.10;;;;;;4955569;28;45110;-82
2023/09/22 07:41:53;;;;;;;0.63;0.30;;;22.70;57.10;;;;;;4942717;28;45224;-81
2023/09/22 07:44:21;;;;;;;0.65;0.40;;;22.80;57.20;;;;;;4958519;28;45421;-82
2023/09/22 07:46:50;;;;;;;0.40;0.10;;;22.80;57.20;;;;;;4952513;28;45815;-82
2023/09/22 07:49:16;;;;;;;0.52;0.45;;;22.80;57.20;;;;;;4912198;28;45751;-82
2023/09/22 07:51:42;;;;;;;0.93;0.30;;;22.80;57.20;;;;;;4954879;28;44991;-81
2023/09/22 07:54:09;;;;;;;0.40;0.20;;;22.80;57.20;;;;;;4974473;28;45562;-82
2023/09/22 07:56:35;;;;;;;0.45;0.30;;;22.70;57.10;;;;;;4956681;28;45823;-81
2023/09/22 07:59:03;;;;;;;1.90;0.50;;;22.80;57.80;;;;;;4976837;28;45376;-81
2023/09/22 08:01:29;;;;;;;0.40;0.30;;;22.70;57.10;;;;;;4949363;28;45440;-81
2023/09/22 08:03:55;;;;;;;0.30;0.30;;;22.80;57.10;;;;;;4955383;28;47143;-82
2023/09/22 08:06:21;;;;;;;0.60;0.20;;;22.80;57.10;;;;;;4950978;28;45420;-81
2023/09/22 08:08:49;;;;;;;0.55;0.25;;;22.70;57.10;;;;;;4964478;28;45049;-82
2023/09/22 08:11:17;;;;;;;0.38;0.30;;;22.70;57.10;;;;;;4971997;28;44949;-82
2023/09/22 08:13:45;;;;;;;0.43;0.22;;;22.70;57.20;;;;;;4942012;28;47124;-82
2023/09/22 08:16:15;;;;;;;1.30;0.30;;;22.70;57.10;;;;;;4924074;28;45263;-82
2023/09/22 08:18:41;;;;;;;0.95;0.28;;;22.80;57.20;;;;;;4944912;28;45492;-82
2023/09/22 08:21:07;;;;;;;0.45;0.30;;;22.70;57.10;;;;;;4943409;28;45185;-82
2023/09/22 08:23:33;;;;;;;1.15;0.43;;;22.70;57.10;;;;;;4924972;28;46598;-83
2023/09/22 08:26:05;;;;;;;0.60;0.30;;;22.70;57.10;;;;;;4923948;28;45517;-82
2023/09/22 08:28:31;;;;;;;0.40;0.38;;;22.70;57.20;;;;;;4947480;28;44691;-81
2023/09/22 08:30:57;;;;;;;0.88;0.30;;;22.80;57.10;;;;;;4909561;28;45496;-82
2023/09/22 08:33:23;;;;;;;1.10;0.30;;;22.70;57.10;;;;;;4944740;28;46470;-82
2023/09/22 08:35:49;;;;;;;0.90;0.47;;;22.70;57.20;;;;;;4943275;28;45220;-82
2023/09/22 08:38:15;;;;;;;0.80;0.35;;;22.70;57.10;;;;;;4956524;28;45268;-82
2023/09/22 08:40:45;;;;;;;0.52;0.40;;;22.70;57.10;;;;;;4943915;28;45203;-82
2023/09/22 08:43:11;;;;;;;0.98;0.35;;;22.70;57.10;;;;;;4943611;28;46454;-82
2023/09/22 08:45:37;;;;;;;0.30;0.30;;;22.70;57.10;;;;;;4963984;28;45183;-81
2023/09/22 08:48:03;;;;;;;0.40;0.40;;;22.70;57.10;;;;;;4957400;28;45468;-81
2023/09/22 08:50:29;;;;;;;0.55;0.32;;;22.70;57.10;;;;;;4929634;28;45433;-81
2023/09/22 08:52:56;;;;;;;0.35;0.30;;;22.70;57.10;;;;;;4923477;28;46220;-82
2023/09/22 08:55:23;;;;;;;1.02;0.38;;;22.70;57.10;;;;;;4934950;28;45580;-81
2023/09/22 08:57:49;;;;;;;0.50;0.30;;;22.70;57.10;;;;;;4929243;28;45171;-82
2023/09/22 09:00:18;;;;;;;0.73;0.40;;;22.70;57.10;;;;;;4937146;28;45141;-81
2023/09/22 09:02:48;;;;;;;0.30;0.30;;;22.70;57.10;;;;;;4927293;28;47660;-81
2023/09/22 09:05:29;;;;;;;0.60;0.30;;;22.70;57.10;;;;;;4935662;28;45453;-81
2023/09/22 09:07:56;;;;;;;0.98;0.25;;;22.70;57.10;;;;;;4954898;28;45380;-81
2023/09/22 09:10:34;;;;;;;0.55;0.30;;;22.70;57.10;;;;;;4936301;28;45479;-81
2023/09/22 09:13:04;;;;;;;0.45;0.30;;;22.70;57.10;;;;;;4946284;28;46493;-82
2023/09/22 09:15:30;;;;;;;0.32;0.30;;;22.70;57.10;;;;;;4950083;28;45405;-81
2023/09/22 09:18:04;;;;;;;0.35;0.22;;;22.70;57.10;;;;;;4938564;28;45376;-81
2023/09/22 09:20:36;;;;;;;0.35;0.30;;;22.80;57.20;;;;;;4949540;28;45589;-81
2023/09/22 09:23:15;;;;;;;0.98;0.30;;;22.70;57.10;;;;;;4937041;28;46146;-82
2023/09/22 09:25:47;;;;;;;0.30;0.30;;;22.70;57.10;;;;;;4923535;28;45009;-82
2023/09/22 09:28:13;;;;;;;0.35;0.20;;;22.70;57.10;;;;;;4936040;28;45677;-82
2023/09/22 09:31:24;;;;;;;0.70;0.40;;;22.70;57.10;;;;;;4949199;28;44900;-82
2023/09/22 09:33:54;;;;;;;2.28;0.28;;;22.70;57.10;;;;;;4957204;28;46156;-81
2023/09/22 09:36:20;;;;;;;0.30;0.30;;;22.70;57.20;;;;;;4933462;28;45417;-82
2023/09/22 09:38:46;;;;;;;0.47;0.30;;;22.70;57.10;;;;;;4956898;28;45330;-81
2023/09/22 09:41:12;;;;;;;0.60;0.30;;;22.70;57.10;;;;;;4935279;28;45092;-81
2023/09/22 09:43:38;;;;;;;0.40;0.30;;;22.70;57.10;;;;;;4941539;28;46478;-82
2023/09/22 09:46:05;;;;;;;0.25;0.25;;;22.70;57.10;;;;;;4967617;28;45499;-82
2023/09/22 09:48:30;;;;;;;0.82;0.38;;;22.70;57.10;;;;;;4937454;28;45268;-82
2023/09/22 09:51:00;;;;;;;0.43;0.38;;;22.70;57.20;;;;;;4920282;28;45600;-81
2023/09/22 09:53:35;;;;;;;0.57;0.30;;;22.70;57.20;;;;;;4964658;28;45411;-80
2023/09/22 09:56:05;;;;;;;0.90;0.30;;;22.70;57.20;;;;;;4946261;28;45583;-82
2023/09/22 09:58:34;;;;;;;0.30;0.30;;;22.70;57.20;;;;;;4961891;28;45158;-82
2023/09/22 10:01:05;;;;;;;0.50;0.35;;;22.70;57.20;;;;;;4932740;28;46083;-82
2023/09/22 10:03:31;;;;;;;0.38;0.20;;;22.70;57.20;;;;;;4940561;28;45319;-82
2023/09/22 10:05:57;;;;;;;0.40;0.30;;;22.70;57.20;;;;;;4929827;28;45161;-82
2023/09/22 10:08:27;;;;;;;1.30;0.20;;;22.70;57.20;;;;;;4959430;28;45227;-82
2023/09/22 10:10:53;;;;;;;1.45;0.30;;;22.70;57.20;;;;;;4958493;28;45276;-81
2023/09/22 10:13:19;;;;;;;1.73;0.40;;;22.70;57.20;;;;;;4925732;28;45265;-81
2023/09/22 10:15:58;;;;;;;1.50;0.50;;;22.70;57.20;;;;;;4937972;28;45263;-81
2023/09/22 10:18:52;;;;;;;1.00;0.60;;;22.70;57.20;;;;;;4978107;28;45375;-81
2023/09/22 10:21:46;;;;;;;0.90;0.77;;;22.70;57.20;;;;;;4950615;28;44734;-81
2023/09/22 10:24:27;;;;;;;2.58;0.82;;;22.70;57.20;;;;;;4945714;28;45638;-82
2023/09/22 10:26:55;;;;;;;1.60;0.85;;;22.70;57.20;;;;;;4975843;28;45329;-82
2023/09/22 10:29:38;;;;;;;2.13;1.20;;;22.70;57.20;;;;;;4962279;28;45385;-81
2023/09/22 10:32:16;;;;;;;1.17;0.90;;;22.70;57.20;;;;;;4922154;28;45307;-82
2023/09/22 10:35:04;;;;;;;1.00;0.80;;;22.70;57.20;;;;;;4958242;28;47674;-82
2023/09/22 10:37:32;;;;;;;1.52;0.98;;;22.60;57.20;;;;;;4936311;28;45568;-82
2023/09/22 10:40:29;;;;;;;1.50;0.90;;;22.60;57.20;;;;;;4926223;28;45372;-81
2023/09/22 10:42:55;;;;;;;1.15;0.80;;;22.70;57.20;;;;;;4967808;28;45706;-82
2023/09/22 10:45:23;;;;;;;1.58;0.88;;;22.60;57.20;;;;;;4921824;28;46215;-81
2023/09/22 10:47:51;;;;;;;2.00;1.17;;;22.60;57.20;;;;;;4926445;28;45244;-82
2023/09/22 10:50:21;;;;;;;1.63;1.08;;;22.70;57.20;;;;;;4942557;28;45123;-82
2023/09/22 10:53:03;;;;;;;1.75;1.10;;;22.70;57.30;;;;;;4955385;28;45723;-81
2023/09/22 10:55:40;;;;;;;0.93;0.70;;;22.70;57.20;;;;;;4951832;28;45953;-83
2023/09/22 10:58:26;;;;;;;1.17;0.80;;;22.60;57.30;;;;;;4965380;28;45185;-82
2023/09/22 11:01:00;;;;;;;1.25;1.00;;;22.60;57.20;;;;;;4931864;28;44923;-84
2023/09/22 11:03:26;;;;;;;1.67;0.60;;;22.70;57.30;;;;;;4927215;28;45135;-81
2023/09/22 11:06:11;;;;;;;0.75;0.55;;;22.60;57.20;;;;;;4935719;28;46600;-81
2023/09/22 11:08:51;;;;;;;0.85;0.68;;;22.60;57.20;;;;;;4937409;28;45208;-81
2023/09/22 11:11:17;;;;;;;0.68;0.50;;;22.70;57.20;;;;;;4920734;28;45245;-81
2023/09/22 11:13:56;;;;;;;1.60;0.65;;;22.60;57.20;;;;;;4940889;28;45442;-82
2023/09/22 11:16:21;;;;;;;1.95;0.80;;;22.60;57.20;;;;;;4928809;28;47282;-82
2023/09/22 11:18:48;;;;;;;0.73;0.70;;;22.60;57.20;;;;;;4961478;28;45710;-82
2023/09/22 11:21:14;;;;;;;0.80;0.57;;;22.60;57.20;;;;;;4940674;28;45245;-81
2023/09/22 11:23:39;;;;;;;0.68;0.60;;;22.60;57.20;;;;;;4924136;28;46424;-82
2023/09/22 11:26:07;;;;;;;1.05;0.70;;;22.70;57.30;;;;;;4941750;28;45903;-82
2023/09/22 11:28:33;;;;;;;0.70;0.60;;;22.70;57.20;;;;;;4960882;28;44910;-81
2023/09/22 11:31:09;;;;;;;0.90;0.70;;;22.60;57.20;;;;;;4934667;28;45625;-81
2023/09/22 11:33:38;;;;;;;1.63;0.80;;;22.70;57.30;;;;;;4929801;28;45336;-81
2023/09/22 11:36:05;;;;;;;1.48;0.80;;;22.60;57.20;;;;;;4940017;28;46271;-81
2023/09/22 11:38:31;;;;;;;1.00;0.68;;;22.60;57.20;;;;;;4946839;28;45015;-81
2023/09/22 11:41:32;;;;;;;1.45;0.70;;;22.60;57.20;;;;;;4922241;28;45245;-82
2023/09/22 11:43:58;;;;;;;0.60;0.50;;;22.60;57.30;;;;;;4960225;28;45517;-81
2023/09/22 11:46:28;;;;;;;1.20;0.68;;;22.70;57.30;;;;;;4968703;28;45613;-81
2023/09/22 11:49:01;;;;;;;1.23;0.65;;;22.60;57.20;;;;;;4954006;28;45319;-81
2023/09/22 11:51:48;;;;;;;1.60;0.85;;;22.60;57.20;;;;;;4936936;28;45287;-81
2023/09/22 11:54:15;;;;;;;0.32;0.32;;;22.60;57.20;;;;;;4950574;28;45401;-81
2023/09/22 11:56:41;;;;;;;1.13;0.50;;;22.60;57.20;;;;;;4937818;28;46909;-81
2023/09/22 11:59:07;;;;;;;0.90;0.52;;;22.60;57.20;;;;;;4944684;28;45225;-81
2023/09/22 12:01:34;;;;;;;0.50;0.40;;;22.60;57.20;;;;;;4916201;28;45250;-81
2023/09/22 12:03:59;;;;;;;1.48;0.60;;;22.70;57.90;;;;;;4941237;28;44853;-80
2023/09/22 12:06:25;;;;;;;1.90;0.68;;;22.60;57.20;;;;;;4927583;28;45684;-81
2023/09/22 12:08:52;;;;;;;0.70;0.50;;;22.60;57.20;;;;;;4962766;28;46097;-80
2023/09/22 12:11:18;;;;;;;1.05;0.50;;;22.60;57.30;;;;;;4938288;28;45211;-81
2023/09/22 12:13:46;;;;;;;1.63;0.60;;;22.60;57.20;;;;;;4924982;28;45979;-80
2023/09/22 12:16:12;;;;;;;1.02;0.50;;;22.60;57.30;;;;;;4937461;28;46778;-81
2023/09/22 12:18:38;;;;;;;1.45;0.65;;;22.60;57.20;;;;;;4925067;28;45533;-80
2023/09/22 12:21:04;;;;;;;1.05;0.55;;;22.60;57.30;;;;;;4934457;28;45310;-81
2023/09/22 12:23:29;;;;;;;1.05;0.60;;;22.60;57.30;;;;;;4914508;28;44997;-81
2023/09/22 12:25:55;;;;;;;1.13;0.47;;;22.60;57.30;;;;;;4953937;28;46224;-80
2023/09/22 12:28:21;;;;;;;1.67;0.40;;;22.60;57.30;;;;;;4959837;28;44725;-80
2023/09/22 12:30:49;;;;;;;1.50;0.50;;;22.60;57.30;;;;;;4950074;28;45378;-81
2023/09/22 12:33:15;;;;;;;1.23;0.40;;;22.60;57.30;;;;;;4955949;28;44661;-80
2023/09/22 12:35:41;;;;;;;2.33;1.13;;;22.60;57.30;;;;;;4921404;28;46729;-81
2023/09/22 12:38:07;;;;;;;0.80;0.40;;;22.60;57.30;;;;;;4950844;28;45157;-81
2023/09/22 12:40:34;;;;;;;0.80;0.47;;;22.60;57.30;;;;;;4942156;28;45298;-81
2023/09/22 12:43:00;;;;;;;1.63;0.60;;;22.60;57.30;;;;;;4958235;28;45251;-80
2023/09/22 12:45:25;;;;;;;0.70;0.30;;;22.60;57.30;;;;;;4949726;28;45600;-81
2023/09/22 12:47:51;;;;;;;0.63;0.40;;;22.60;57.30;;;;;;4940331;28;45376;-81
2023/09/22 12:50:17;;;;;;;0.80;0.50;;;22.60;57.30;;;;;;4937846;28;45252;-80
2023/09/22 12:52:43;;;;;;;0.63;0.45;;;22.60;57.30;;;;;;4954678;28;45330;-81
2023/09/22 12:55:10;;;;;;;0.90;0.60;;;22.60;57.30;;;;;;4973030;28;46530;-81
2023/09/22 12:57:37;;;;;;;1.42;0.47;;;22.60;57.30;;;;;;4914074;28;45423;-81
2023/09/22 13:00:04;;;;;;;0.80;0.50;;;22.60;57.30;;;;;;4974670;28;45748;-80
2023/09/22 13:02:30;;;;;;;1.00;0.40;;;22.60;57.30;;;;;;4918632;28;45371;-81
2023/09/22 13:04:56;;;;;;;0.73;0.47;;;22.60;57.30;;;;;;4942750;28;46529;-81
2023/09/22 13:07:22;;;;;;;0.90;0.60;;;22.60;57.30;;;;;;4937040;28;45676;-80
2023/09/22 13:09:48;;;;;;;1.58;0.93;;;22.60;57.30;;;;;;4913811;28;45364;-81
2023/09/22 13:12:14;;;;;;;0.77;0.40;;;22.60;57.30;;;;;;4927492;28;45543;-81
2023/09/22 13:14:41;;;;;;;0.75;0.30;;;22.60;57.30;;;;;;4956123;28;45641;-81
2023/09/22 13:17:07;;;;;;;0.80;0.40;;;22.60;57.30;;;;;;4949754;28;45290;-81
2023/09/22 13:19:32;;;;;;;0.65;0.50;;;22.60;57.30;;;;;;4940949;28;45173;-81
2023/09/22 13:22:00;;;;;;;0.85;0.60;;;22.60;57.30;;;;;;4953298;28;45547;-81
2023/09/22 13:24:26;;;;;;;1.65;0.43;;;22.60;57.30;;;;;;4922167;28;46052;-80
2023/09/22 13:26:52;;;;;;;0.98;0.40;;;22.60;57.30;;;;;;4913403;28;45589;-80
2023/09/22 13:29:18;;;;;;;0.60;0.28;;;22.60;57.30;;;;;;4957779;28;45077;-81
2023/09/22 13:31:45;;;;;;;0.32;0.30;;;22.60;57.30;;;;;;4947822;28;45403;-81
2023/09/22 13:34:11;;;;;;;0.93;0.40;;;22.60;57.30;;;;;;4927381;28;45576;-80
2023/09/22 13:36:37;;;;;;;0.40;0.30;;;22.60;57.30;;;;;;4952365;28;44743;-81
2023/09/22 13:39:05;;;;;;;0.90;0.52;;;22.60;57.30;;;;;;4956679;28;45538;-81
2023/09/22 13:41:31;;;;;;;1.20;0.32;;;22.60;57.30;;;;;;4923227;28;45591;-80
2023/09/22 13:43:57;;;;;;;0.38;0.32;;;22.60;57.30;;;;;;4954886;28;46213;-82
2023/09/22 13:46:23;;;;;;;0.47;0.30;;;22.60;57.30;;;;;;4915726;28;45340;-82
2023/09/22 13:48:48;;;;;;;0.50;0.30;;;22.60;57.30;;;;;;4905641;28;45928;-81
2023/09/22 13:51:14;;;;;;;0.65;0.40;;;22.60;57.30;;;;;;4952047;28;45441;-80
2023/09/22 13:53:40;;;;;;;0.63;0.32;;;22.60;57.30;;;;;;4944353;28;46095;-80
2023/09/22 13:56:17;;;;;;;0.70;0.30;;;22.60;57.30;;;;;;4943495;28;45196;-81
2023/09/22 13:58:43;;;;;;;0.73;0.40;;;22.60;57.30;;;;;;4929785;28;45126;-81
2023/09/22 14:01:12;;;;;;;0.50;0.30;;;22.60;57.30;;;;;;4911583;28;45375;-80
2023/09/22 14:03:38;;;;;;;1.30;0.40;;;22.60;57.30;;;;;;4934148;28;46860;-80
2023/09/22 14:06:04;;;;;;;0.32;0.32;;;22.60;57.30;;;;;;4944860;28;45240;-81
2023/09/22 14:08:31;;;;;;;1.58;0.43;;;22.60;57.30;;;;;;4936307;28;45257;-81
2023/09/22 14:10:57;;;;;;;0.20;0.20;;;22.60;57.30;;;;;;4902571;28;45552;-81
2023/09/22 14:13:23;;;;;;;1.98;0.40;;;22.60;57.30;;;;;;4940791;28;47136;-81
2023/09/22 14:15:48;;;;;;;0.95;0.32;;;22.60;57.30;;;;;;4942145;28;45548;-81
2023/09/22 14:18:14;;;;;;;0.70;0.47;;;22.60;57.30;;;;;;4936481;28;45247;-81
2023/09/22 14:20:41;;;;;;;1.10;0.45;;;22.60;57.30;;;;;;4964029;28;45906;-82
2023/09/22 14:23:08;;;;;;;0.60;0.38;;;22.60;57.30;;;;;;4913682;28;46087;-81
2023/09/22 14:25:37;;;;;;;0.40;0.28;;;22.60;57.30;;;;;;4935071;28;45695;-81
2023/09/22 14:28:04;;;;;;;0.30;0.22;;;22.60;57.20;;;;;;4957552;28;45182;-81
2023/09/22 14:30:30;;;;;;;0.70;0.50;;;22.60;57.30;;;;;;4942256;28;46436;-81
2023/09/22 14:32:56;;;;;;;0.80;0.40;;;22.60;57.30;;;;;;4932219;28;46481;-81
2023/09/22 14:35:26;;;;;;;1.05;0.30;;;22.60;57.30;;;;;;4945232;28;45951;-81
2023/09/22 14:37:53;;;;;;;0.55;0.30;;;22.60;57.20;;;;;;4919676;28;44707;-81
2023/09/22 14:40:19;;;;;;;0.30;0.30;;;22.60;57.20;;;;;;4948509;28;44969;-81
2023/09/22 14:42:45;;;;;;;1.20;0.30;;;22.60;57.20;;;;;;4946014;28;45416;-81
2023/09/22 14:45:11;;;;;;;0.50;0.22;;;22.50;57.20;;;;;;4929517;28;45315;-80
2023/09/22 14:47:37;;;;;;;0.50;0.30;;;22.60;57.20;;;;;;4949540;28;45628;-82
2023/09/22 14:50:04;;;;;;;0.75;0.40;;;22.60;57.30;;;;;;4932353;28;45554;-80
2023/09/22 14:52:30;;;;;;;0.20;0.20;;;22.60;57.20;;;;;;4918130;28;45885;-81
2023/09/22 14:54:56;;;;;;;0.40;0.30;;;22.60;57.20;;;;;;4919798;28;46349;-81
2023/09/22 14:57:22;;;;;;;0.40;0.40;;;22.60;57.20;;;;;;4918357;28;45196;-81
2023/09/22 14:59:48;;;;;;;0.35;0.35;;;22.50;57.20;;;;;;4953987;28;45411;-81
2023/09/22 15:02:14;;;;;;;0.60;0.30;;;22.60;57.20;;;;;;4916086;28;46099;-81
2023/09/22 15:04:40;;;;;;;0.93;0.20;;;22.50;57.20;;;;;;4902196;28;45101;-81
2023/09/22 15:07:06;;;;;;;0.40;0.30;;;22.60;57.20;;;;;;4894866;28;45600;-81
2023/09/22 15:09:32;;;;;;;0.40;0.20;;;22.50;57.20;;;;;;4903261;28;46324;-81
2023/09/22 15:11:59;;;;;;;0.30;0.30;;;22.50;57.20;;;;;;4897467;28;46546;-81
2023/09/22 15:14:28;;;;;;;0.25;0.20;;;22.50;57.20;;;;;;4917755;28;45521;-81
2023/09/22 15:16:53;;;;;;;0.50;0.25;;;22.50;57.20;;;;;;4923816;28;45935;-81
2023/09/22 15:19:23;;;;;;;0.68;0.30;;;22.50;57.10;;;;;;4918743;28;45263;-81
2023/09/22 15:21:49;;;;;;;0.20;0.20;;;22.60;57.20;;;;;;4928627;28;45176;-81
2023/09/22 15:24:15;;;;;;;0.25;0.20;;;22.50;57.10;;;;;;4907688;28;45514;-81
2023/09/22 15:26:41;;;;;;;0.15;0.13;;;22.50;57.10;;;;;;4911896;28;45201;-81
2023/09/22 15:29:07;;;;;;;1.10;0.40;;;22.50;57.20;;;;;;4903596;28;45534;-81
2023/09/22 15:31:33;;;;;;;0.32;0.30;;;22.50;57.10;;;;;;4904136;28;45607;-81
2023/09/22 15:34:01;;;;;;;1.23;0.30;;;22.50;57.10;;;;;;4931018;28;45320;-81
2023/09/22 15:36:28;;;;;;;0.30;0.20;;;22.50;57.10;;;;;;4941668;28;46446;-80
2023/09/22 15:38:57;;;;;;;0.22;0.20;;;22.50;57.10;;;;;;4925982;28;46816;-81
2023/09/22 15:41:23;;;;;;;0.35;0.30;;;22.50;57.10;;;;;;4929676;28;46194;-81
2023/09/22 15:43:48;;;;;;;0.63;0.30;;;22.60;57.10;;;;;;4948996;28;45703;-81
2023/09/22 15:46:14;;;;;;;0.60;0.35;;;22.50;57.10;;;;;;4911162;28;45459;-81
2023/09/22 15:48:41;;;;;;;0.47;0.20;;;22.50;57.00;;;;;;4916066;28;45450;-81
2023/09/22 15:51:07;;;;;;;0.88;0.20;;;22.50;57.10;;;;;;4880199;28;46209;-81
2023/09/22 15:53:35;;;;;;;0.30;0.30;;;22.50;57.00;;;;;;4917165;28;44955;-80